createdAt,value
2018-11-28T00:00:10.178Z,22.03
2018-11-28T00:02:37.433Z,22.63
2018-11-28T00:05:07.748Z,21.17
2018-11-28T00:07:34.943Z,23.00
2018-11-28T00:10:02.226Z,23.60
2018-11-28T00:12:29.501Z,23.10
2018-11-28T00:14:56.786Z,22.80
2018-11-28T00:17:23.959Z,22.33
2018-11-28T00:19:52.115Z,23.93
2018-11-28T00:22:19.287Z,22.60
2018-11-28T00:24:46.462Z,22.67
2018-11-28T00:27:13.623Z,23.93
2018-11-28T00:29:40.799Z,21.77
2018-11-28T00:32:07.966Z,22.20
2018-11-28T00:34:35.154Z,22.80
2018-11-28T00:37:02.330Z,24.23
2018-11-28T00:39:29.541Z,22.40
2018-11-28T00:41:56.711Z,22.33
2018-11-28T00:44:23.861Z,20.83
2018-11-28T00:46:51.023Z,22.97
2018-11-28T00:49:18.218Z,23.10
2018-11-28T00:51:45.354Z,21.27
2018-11-28T00:54:13.875Z,23.13
2018-11-28T00:56:41.123Z,23.60
2018-11-28T00:59:08.323Z,24.90
2018-11-28T01:01:37.562Z,23.43
2018-11-28T01:04:04.738Z,21.77
2018-11-28T01:06:31.848Z,26.37
2018-11-28T01:08:59.002Z,20.60
2018-11-28T01:11:26.162Z,22.00
2018-11-28T01:13:53.306Z,24.40
2018-11-28T01:16:20.411Z,24.00
2018-11-28T01:18:47.571Z,23.93
2018-11-28T01:21:14.870Z,22.10
2018-11-28T01:23:42.046Z,21.00
2018-11-28T01:26:09.194Z,22.80
2018-11-28T01:28:36.347Z,24.83
2018-11-28T01:31:03.480Z,20.57
2018-11-28T01:33:30.660Z,21.57
2018-11-28T01:35:57.842Z,23.20
2018-11-28T01:38:24.977Z,23.20
2018-11-28T01:40:52.106Z,21.53
2018-11-28T01:43:19.298Z,23.67
2018-11-28T01:45:46.432Z,22.90
2018-11-28T01:48:13.596Z,26.40
2018-11-28T01:50:40.766Z,20.97
2018-11-28T01:53:07.932Z,23.13
2018-11-28T01:55:35.111Z,23.70
2018-11-28T01:58:02.305Z,21.00
2018-11-28T02:00:29.463Z,23.63
2018-11-28T02:02:58.020Z,27.70
2018-11-28T02:05:25.155Z,24.37
2018-11-28T02:07:52.331Z,24.47
2018-11-28T02:10:19.557Z,21.63
2018-11-28T02:12:46.739Z,24.17
2018-11-28T02:15:18.209Z,24.23
2018-11-28T02:17:45.482Z,24.53
2018-11-28T02:20:14.385Z,23.10
2018-11-28T02:22:41.546Z,22.17
2018-11-28T02:25:10.049Z,21.57
2018-11-28T02:27:37.171Z,22.33
2018-11-28T02:43:04.926Z,22.50
2018-11-28T02:45:32.161Z,20.73
2018-11-28T02:47:59.272Z,19.97
2018-11-28T02:50:26.386Z,35.87
2018-11-28T02:52:53.590Z,31.30
2018-11-28T02:55:20.782Z,30.80
2018-11-28T02:57:48.940Z,25.97
2018-11-28T03:00:24.323Z,25.17
2018-11-28T03:02:51.550Z,26.90
2018-11-28T03:05:18.767Z,25.83
2018-11-28T03:07:46.006Z,24.50
2018-11-28T03:10:17.969Z,27.63
2018-11-28T03:12:45.148Z,25.60
2018-11-28T03:15:13.695Z,25.60
2018-11-28T03:17:40.896Z,26.03
2018-11-28T03:20:09.155Z,22.87
2018-11-28T03:22:36.291Z,23.90
2018-11-28T03:25:03.987Z,26.23
2018-11-28T03:27:31.146Z,21.73
2018-11-28T03:29:58.292Z,23.73
2018-11-28T03:32:25.452Z,28.43
2018-11-28T03:34:52.611Z,27.17
2018-11-28T03:37:19.743Z,25.40
2018-11-28T03:39:46.915Z,26.20
2018-11-28T03:42:14.071Z,28.30
2018-11-28T03:44:41.264Z,27.07
2018-11-28T03:47:08.412Z,28.13
2018-11-28T03:49:35.560Z,26.73
2018-11-28T03:52:02.711Z,26.40
2018-11-28T03:54:29.901Z,25.23
2018-11-28T03:56:57.050Z,28.47
2018-11-28T03:59:24.202Z,27.87
2018-11-28T04:01:51.361Z,26.17
2018-11-28T04:04:18.497Z,25.50
2018-11-28T04:06:45.995Z,26.27
2018-11-28T04:09:13.188Z,23.83
2018-11-28T04:11:40.395Z,30.80
2018-11-28T04:14:07.614Z,28.17
2018-11-28T04:16:34.723Z,29.40
2018-11-28T04:19:04.335Z,26.73
2018-11-28T04:21:31.695Z,28.07
2018-11-28T04:23:58.880Z,28.50
2018-11-28T04:26:26.106Z,27.90
2018-11-28T04:28:53.304Z,28.40
2018-11-28T04:31:20.456Z,26.63
2018-11-28T04:33:47.613Z,28.80
2018-11-28T04:36:14.771Z,30.13
2018-11-28T04:38:41.961Z,28.30
2018-11-28T04:41:09.110Z,31.23
2018-11-28T04:43:36.240Z,26.80
2018-11-28T04:46:03.365Z,30.07
2018-11-28T04:48:30.545Z,28.03
2018-11-28T04:50:57.696Z,27.13
2018-11-28T04:53:24.851Z,30.13
2018-11-28T04:55:52.533Z,28.80
2018-11-28T04:58:19.672Z,29.67
2018-11-28T05:00:46.837Z,31.90
2018-11-28T05:03:14.051Z,30.53
2018-11-28T05:05:41.222Z,28.90
2018-11-28T05:08:08.417Z,29.17
2018-11-28T05:10:35.565Z,28.57
2018-11-28T05:13:02.754Z,26.90
2018-11-28T05:15:31.104Z,29.27
2018-11-28T05:17:58.301Z,25.90
2018-11-28T05:20:27.288Z,26.60
2018-11-28T05:22:54.529Z,30.67
2018-11-28T05:25:22.884Z,26.80
2018-11-28T05:27:51.102Z,27.33
2018-11-28T05:30:19.282Z,27.30
2018-11-28T05:32:46.499Z,27.07
2018-11-28T05:35:14.862Z,28.83
2018-11-28T05:37:42.087Z,28.20
2018-11-28T05:40:15.572Z,28.23
2018-11-28T05:42:42.781Z,28.57
2018-11-28T05:58:10.065Z,31.73
2018-11-28T06:00:38.134Z,26.57
2018-11-28T06:03:12.991Z,29.50
2018-11-28T06:05:41.873Z,26.60
2018-11-28T06:08:09.083Z,29.10
2018-11-28T06:10:36.286Z,31.27
2018-11-28T06:13:03.583Z,33.10
2018-11-28T06:15:30.826Z,29.43
2018-11-28T06:17:58.007Z,27.73
2018-11-28T06:20:25.211Z,27.80
2018-11-28T06:22:52.389Z,31.60
2018-11-28T06:25:19.549Z,29.67
2018-11-28T06:27:46.696Z,29.47
2018-11-28T06:30:16.006Z,29.83
2018-11-28T06:32:43.203Z,30.17
2018-11-28T06:35:10.719Z,26.37
2018-11-28T06:37:37.969Z,26.70
2018-11-28T06:40:13.010Z,27.97
2018-11-28T06:42:40.285Z,26.07
2018-11-28T06:45:09.156Z,28.60
2018-11-28T06:47:36.404Z,30.23
2018-11-28T06:50:05.826Z,27.83
2018-11-28T06:52:32.927Z,28.23
2018-11-28T06:55:00.110Z,29.97
2018-11-28T06:57:27.341Z,29.43
2018-11-28T06:59:54.566Z,29.17
2018-11-28T07:02:21.734Z,27.20
2018-11-28T07:04:48.902Z,27.90
2018-11-28T07:07:16.106Z,27.70
2018-11-28T07:09:43.303Z,30.17
2018-11-28T07:12:10.422Z,28.60
2018-11-28T07:14:37.577Z,27.83
2018-11-28T07:17:05.244Z,29.90
2018-11-28T07:19:32.383Z,27.77
2018-11-28T07:21:59.543Z,30.20
2018-11-28T07:24:26.714Z,32.33
2018-11-28T07:26:53.971Z,29.03
2018-11-28T07:29:21.098Z,26.17
2018-11-28T07:31:48.262Z,28.60
2018-11-28T07:34:15.510Z,29.67
2018-11-28T07:36:42.664Z,29.47
2018-11-28T07:39:10.006Z,30.67
2018-11-28T07:41:37.142Z,27.87
2018-11-28T07:44:04.369Z,27.97
2018-11-28T07:46:31.511Z,31.80
2018-11-28T07:48:58.682Z,28.93
2018-11-28T07:51:25.793Z,26.23
2018-11-28T07:53:53.023Z,27.50
2018-11-28T07:56:20.167Z,30.87
2018-11-28T07:58:47.318Z,29.50
2018-11-28T08:01:14.482Z,28.60
2018-11-28T08:03:41.675Z,28.40
2018-11-28T08:06:08.810Z,33.27
2018-11-28T08:08:37.203Z,33.97
2018-11-28T08:11:05.522Z,34.80
2018-11-28T08:13:32.642Z,31.50
2018-11-28T08:15:59.866Z,30.10
2018-11-28T08:18:27.082Z,31.20
2018-11-28T08:20:54.338Z,25.20
2018-11-28T08:23:21.556Z,26.10
2018-11-28T08:25:48.759Z,29.07
2018-11-28T08:28:15.933Z,26.90
2018-11-28T08:30:43.147Z,27.00
2018-11-28T08:33:10.402Z,27.03
2018-11-28T08:35:37.611Z,29.00
2018-11-28T08:38:05.233Z,28.20
2018-11-28T08:40:32.470Z,28.70
2018-11-28T08:42:59.733Z,29.70
2018-11-28T08:45:26.954Z,28.93
2018-11-28T08:47:55.265Z,28.67
2018-11-28T08:50:27.562Z,29.73
2018-11-28T08:52:54.766Z,26.67
2018-11-28T08:55:21.990Z,28.20
2018-11-28T08:57:49.226Z,28.63
2018-11-28T09:00:18.987Z,30.50
2018-11-28T09:02:47.091Z,26.53
2018-11-28T09:05:14.480Z,28.93
2018-11-28T09:07:41.760Z,29.17
2018-11-28T09:10:12.094Z,31.17
2018-11-28T09:12:39.366Z,31.73
2018-11-28T09:15:09.671Z,27.37
2018-11-28T09:17:36.903Z,27.90
2018-11-28T09:20:07.626Z,25.20
2018-11-28T09:22:34.830Z,28.57
2018-11-28T09:25:02.021Z,29.20
2018-11-28T09:27:29.143Z,28.97
2018-11-28T09:29:56.359Z,27.10
2018-11-28T09:32:23.487Z,27.70
2018-11-28T09:34:50.591Z,28.07
2018-11-28T09:37:17.855Z,26.37
2018-11-28T09:39:45.358Z,29.80
2018-11-28T09:42:12.503Z,26.87
2018-11-28T09:44:39.679Z,28.20
2018-11-28T09:47:06.845Z,26.07
2018-11-28T09:52:08.041Z,26.57
2018-11-28T09:54:35.193Z,26.80
2018-11-28T09:57:02.364Z,26.53
2018-11-28T09:59:29.559Z,26.10
2018-11-28T10:01:56.705Z,24.30
2018-11-28T10:04:23.813Z,26.27
2018-11-28T10:06:50.947Z,28.10
2018-11-28T10:09:18.059Z,24.20
2018-11-28T10:11:45.236Z,25.80
2018-11-28T10:14:12.331Z,23.70
2018-11-28T10:16:39.583Z,26.03
2018-11-28T10:19:06.732Z,26.07
2018-11-28T10:21:33.904Z,24.57
2018-11-28T10:24:01.062Z,21.40
2018-11-28T10:26:28.249Z,25.70
2018-11-28T10:28:55.382Z,25.43
2018-11-28T10:31:22.650Z,23.00
2018-11-28T10:33:49.811Z,22.67
2018-11-28T10:36:17.040Z,25.53
2018-11-28T10:38:44.217Z,23.47
2018-11-28T10:41:11.379Z,24.30
2018-11-28T10:43:38.571Z,22.77
2018-11-28T10:46:05.734Z,22.93
2018-11-28T10:48:32.902Z,22.03
2018-11-28T10:51:00.077Z,23.67
2018-11-28T10:53:27.275Z,22.37
2018-11-28T10:55:54.458Z,19.70
2018-11-28T10:58:21.687Z,21.73
2018-11-28T11:00:54.494Z,20.13
2018-11-28T11:03:27.278Z,21.27
2018-11-28T11:06:00.318Z,24.10
2018-11-28T11:08:32.121Z,21.33
2018-11-28T11:11:04.863Z,20.60
2018-11-28T11:13:37.823Z,20.30
2018-11-28T11:16:05.086Z,19.30
2018-11-28T11:18:32.311Z,20.17
2018-11-28T11:20:59.502Z,19.47
2018-11-28T11:23:26.778Z,15.23
2018-11-28T11:25:54.186Z,18.13
2018-11-28T11:28:21.414Z,17.37
2018-11-28T11:30:48.679Z,14.43
2018-11-28T11:33:15.917Z,12.93
2018-11-28T11:35:43.133Z,14.10
2018-11-28T11:38:10.363Z,13.20
2018-11-28T11:40:37.551Z,13.17
2018-11-28T11:43:05.507Z,12.07
2018-11-28T11:45:32.715Z,11.97
2018-11-28T11:47:59.903Z,13.30
2018-11-28T11:50:27.060Z,12.53
2018-11-28T11:52:54.236Z,14.80
2018-11-28T11:55:21.495Z,14.90
2018-11-28T11:57:49.128Z,15.40
2018-11-28T12:00:17.752Z,14.67
2018-11-28T12:03:16.003Z,12.60
2018-11-28T12:05:58.921Z,14.80
2018-11-28T12:08:27.266Z,15.73
2018-11-28T12:10:54.507Z,16.40
2018-11-28T12:13:22.199Z,16.10
2018-11-28T12:15:49.336Z,14.97
2018-11-28T12:18:16.687Z,16.40
2018-11-28T12:20:45.466Z,15.90
2018-11-28T12:23:12.658Z,16.13
2018-11-28T12:25:39.775Z,16.93
2018-11-28T12:28:07.223Z,18.13
2018-11-28T12:30:34.426Z,16.40
2018-11-28T12:33:01.660Z,15.57
2018-11-28T12:35:28.850Z,15.90
2018-11-28T12:37:56.083Z,16.30
2018-11-28T12:40:23.265Z,16.50
2018-11-28T12:42:52.058Z,18.83
2018-11-28T12:45:20.087Z,14.70
2018-11-28T12:47:47.773Z,13.00
2018-11-28T12:50:18.167Z,15.77
2018-11-28T12:52:45.371Z,13.60
2018-11-28T12:55:12.547Z,19.40
2018-11-28T12:57:39.726Z,18.73
2018-11-28T13:00:15.156Z,15.70
2018-11-28T13:02:42.334Z,13.23
2018-11-28T13:05:11.726Z,14.10
2018-11-28T13:07:38.927Z,15.73
2018-11-28T13:10:13.178Z,16.70
2018-11-28T13:12:40.371Z,16.00
2018-11-28T13:15:09.763Z,22.27
2018-11-28T13:17:36.933Z,15.77
2018-11-28T13:20:05.705Z,13.90
2018-11-28T13:22:32.894Z,15.30
2018-11-28T13:25:00.035Z,15.83
2018-11-28T13:27:27.196Z,14.50
2018-11-28T13:29:54.420Z,17.80
2018-11-28T13:32:21.624Z,14.57
2018-11-28T13:34:49.003Z,14.63
2018-11-28T13:37:16.154Z,16.67
2018-11-28T13:39:43.295Z,16.50
2018-11-28T13:42:10.487Z,17.30
2018-11-28T13:44:37.646Z,16.40
2018-11-28T13:47:05.129Z,15.40
2018-11-28T13:49:32.274Z,16.60
2018-11-28T13:51:59.414Z,14.70
2018-11-28T13:54:26.625Z,15.90
2018-11-28T13:56:58.715Z,16.93
2018-11-28T13:59:21.014Z,16.00
2018-11-28T14:01:48.227Z,14.90
2018-11-28T14:04:15.438Z,16.23
2018-11-28T14:06:42.594Z,14.70
2018-11-28T14:09:09.813Z,16.13
2018-11-28T14:11:36.938Z,17.80
2018-11-28T14:14:04.727Z,17.17
2018-11-28T14:16:31.899Z,23.90
2018-11-28T14:18:59.084Z,27.67
2018-11-28T14:21:26.264Z,27.70
2018-11-28T14:23:53.534Z,22.80
2018-11-28T14:26:20.762Z,14.67
2018-11-28T14:28:47.909Z,16.83
2018-11-28T14:31:15.149Z,15.10
2018-11-28T14:33:42.267Z,14.57
2018-11-28T14:36:09.434Z,14.47
2018-11-28T14:38:36.578Z,14.73
2018-11-28T14:41:04.674Z,13.87
2018-11-28T14:43:31.887Z,13.93
2018-11-28T14:45:59.004Z,14.30
2018-11-28T14:48:26.248Z,12.87
2018-11-28T14:50:53.430Z,12.37
2018-11-28T14:53:21.073Z,15.13
2018-11-28T14:55:48.238Z,15.00
2018-11-28T14:58:15.491Z,15.50
2018-11-28T15:00:42.787Z,15.97
2018-11-28T15:03:13.581Z,16.50
2018-11-28T15:06:07.837Z,17.90
2018-11-28T15:08:35.075Z,18.07
2018-11-28T15:11:06.858Z,17.90
2018-11-28T15:13:34.057Z,21.67
2018-11-28T15:16:01.281Z,18.80
2018-11-28T15:18:28.396Z,22.90
2018-11-28T15:20:55.539Z,21.93
2018-11-28T15:23:22.796Z,24.10
2018-11-28T15:25:50.122Z,27.63
2018-11-28T15:28:17.358Z,25.07
2018-11-28T15:30:44.915Z,24.60
2018-11-28T15:33:12.118Z,25.30
2018-11-28T15:35:39.764Z,24.37
2018-11-28T15:38:07.150Z,23.10
2018-11-28T15:40:34.347Z,22.70
2018-11-28T15:43:01.551Z,27.20
2018-11-28T15:45:28.781Z,25.93
2018-11-28T15:47:55.966Z,24.23
2018-11-28T15:50:23.101Z,23.70
2018-11-28T15:52:50.283Z,26.40
2018-11-28T15:55:18.066Z,27.53
2018-11-28T15:57:45.003Z,24.00
2018-11-28T16:00:16.671Z,24.83
2018-11-28T16:02:44.203Z,24.63
2018-11-28T16:05:11.401Z,25.27
2018-11-28T16:07:38.597Z,25.63
2018-11-28T16:10:14.102Z,26.37
2018-11-28T16:12:41.305Z,25.60
2018-11-28T16:15:10.631Z,25.83
2018-11-28T16:17:37.871Z,27.80
2018-11-28T16:20:05.171Z,25.97
2018-11-28T16:22:32.394Z,29.77
2018-11-28T16:24:59.618Z,27.23
2018-11-28T16:27:26.785Z,25.17
2018-11-28T16:29:53.984Z,30.40
2018-11-28T16:32:21.147Z,24.37
2018-11-28T16:34:48.377Z,26.33
2018-11-28T16:37:15.531Z,25.57
2018-11-28T16:39:42.934Z,25.30
2018-11-28T16:42:10.227Z,25.70
2018-11-28T16:44:37.443Z,25.53
2018-11-28T16:47:05.072Z,27.90
2018-11-28T16:49:32.258Z,27.67
2018-11-28T16:52:00.454Z,28.17
2018-11-28T16:54:27.618Z,26.97
2018-11-28T16:56:54.820Z,26.33
2018-11-28T16:59:21.999Z,28.00
2018-11-28T17:01:49.163Z,27.37
2018-11-28T17:04:16.430Z,26.03
2018-11-28T17:06:44.047Z,27.17
2018-11-28T17:09:11.245Z,26.13
2018-11-28T17:11:38.386Z,25.03
2018-11-28T17:14:05.749Z,26.40
2018-11-28T17:16:32.937Z,28.27
2018-11-28T17:19:00.124Z,25.53
2018-11-28T17:21:27.306Z,27.33
2018-11-28T17:23:54.533Z,25.27
2018-11-28T17:26:21.871Z,27.17
2018-11-28T17:28:49.080Z,26.63
2018-11-28T17:31:22.866Z,24.13
2018-11-28T17:33:50.115Z,25.80
2018-11-28T17:36:17.322Z,25.50
2018-11-28T17:38:44.736Z,26.87
2018-11-28T17:41:11.900Z,25.57
2018-11-28T17:43:39.051Z,23.00
2018-11-28T17:46:06.307Z,20.73
2018-11-28T17:48:33.475Z,24.57
2018-11-28T17:51:00.709Z,21.90
2018-11-28T17:53:27.922Z,23.00
2018-11-28T17:55:56.982Z,22.70
2018-11-28T17:58:24.139Z,22.07
2018-11-28T18:00:51.335Z,25.07
2018-11-28T18:03:18.793Z,22.33
2018-11-28T18:05:45.966Z,22.87
2018-11-28T18:08:13.066Z,24.10
2018-11-28T18:10:40.261Z,23.47
2018-11-28T18:13:08.488Z,24.90
2018-11-28T18:15:35.962Z,24.00
2018-11-28T18:18:03.540Z,21.97
2018-11-28T18:20:30.708Z,19.70
2018-11-28T18:22:57.953Z,23.30
2018-11-28T18:25:26.430Z,21.93
2018-11-28T18:27:53.647Z,22.97
2018-11-28T18:30:20.849Z,20.70
2018-11-28T18:32:48.019Z,20.17
2018-11-28T18:35:15.180Z,23.43
2018-11-28T18:37:42.381Z,21.80
2018-11-28T18:40:11.443Z,22.27
2018-11-28T18:42:39.170Z,22.87
2018-11-28T18:45:09.429Z,19.60
2018-11-28T18:47:36.583Z,21.10
2018-11-28T18:50:04.997Z,25.47
2018-11-28T18:52:32.242Z,25.27
2018-11-28T18:54:59.419Z,24.10
2018-11-28T18:57:26.551Z,27.80
2018-11-28T18:59:53.745Z,27.87
2018-11-28T19:02:20.921Z,26.57
2018-11-28T19:04:48.099Z,26.70
2018-11-28T19:07:15.303Z,26.90
2018-11-28T19:09:49.168Z,23.07
2018-11-28T19:12:16.866Z,24.70
2018-11-28T19:14:44.841Z,24.83
2018-11-28T19:17:11.865Z,24.50
2018-11-28T19:19:39.223Z,28.80
2018-11-28T19:22:06.712Z,25.50
2018-11-28T19:24:33.904Z,31.90
2018-11-28T19:27:01.195Z,28.73
2018-11-28T19:29:28.338Z,27.50
2018-11-28T19:31:55.539Z,28.13
2018-11-28T19:34:22.791Z,29.30
2018-11-28T19:36:50.047Z,24.37
2018-11-28T19:39:17.192Z,29.67
2018-11-28T19:41:45.240Z,25.53
2018-11-28T19:44:12.392Z,26.87
2018-11-28T19:46:39.643Z,23.93
2018-11-28T19:49:06.892Z,26.47
2018-11-28T19:51:34.151Z,28.07
2018-11-28T19:54:01.389Z,27.33
2018-11-28T19:56:28.677Z,25.10
2018-11-28T19:58:55.912Z,24.97
2018-11-28T20:01:23.201Z,28.67
2018-11-28T20:03:50.410Z,28.43
2018-11-28T20:06:17.628Z,26.23
2018-11-28T20:08:45.211Z,27.10
2018-11-28T20:11:12.464Z,24.43
2018-11-28T20:13:39.790Z,23.67
2018-11-28T20:16:07.097Z,24.30
2018-11-28T20:18:34.366Z,23.20
2018-11-28T20:21:01.684Z,26.43
2018-11-28T20:23:28.943Z,25.80
2018-11-28T20:25:56.297Z,25.83
2018-11-28T20:28:23.619Z,26.70
2018-11-28T20:30:52.927Z,24.10
2018-11-28T20:33:20.171Z,24.00
2018-11-28T20:35:49.205Z,22.60
2018-11-28T20:38:23.714Z,26.07
2018-11-28T20:40:51.013Z,24.00
2018-11-28T20:43:18.264Z,26.30
2018-11-28T20:45:45.475Z,26.90
2018-11-28T20:48:13.501Z,28.40
2018-11-28T20:50:41.370Z,24.13
2018-11-28T20:53:11.125Z,29.47
2018-11-28T20:55:38.391Z,24.57
2018-11-28T20:58:05.909Z,24.80
2018-11-28T21:00:33.150Z,25.13
2018-11-28T21:03:00.368Z,26.03
2018-11-28T21:05:27.568Z,23.70
2018-11-28T21:07:54.786Z,25.87
2018-11-28T21:10:27.729Z,23.37
2018-11-28T21:12:54.888Z,25.60
2018-11-28T21:15:22.111Z,24.87
2018-11-28T21:17:49.366Z,21.60
2018-11-28T21:20:18.385Z,23.20
2018-11-28T21:22:47.979Z,23.83
2018-11-28T21:25:15.241Z,23.70
2018-11-28T21:27:42.497Z,23.67
2018-11-28T21:30:14.638Z,24.43
2018-11-28T21:32:42.039Z,24.60
2018-11-28T21:35:12.319Z,25.30
2018-11-28T21:37:39.581Z,24.53
2018-11-28T21:53:06.565Z,26.30
2018-11-28T21:55:33.781Z,23.40
2018-11-28T21:58:01.803Z,28.10
2018-11-28T22:00:29.034Z,27.73
2018-11-28T22:02:56.192Z,26.13
2018-11-28T22:05:23.826Z,29.53
2018-11-28T22:07:51.047Z,25.37
2018-11-28T22:10:21.034Z,23.43
2018-11-28T22:12:48.211Z,24.40
2018-11-28T22:15:16.504Z,22.47
2018-11-28T22:17:45.029Z,23.10
2018-11-28T22:20:12.983Z,23.20
2018-11-28T22:22:40.252Z,22.50
2018-11-28T22:25:11.695Z,22.47
2018-11-28T22:27:38.947Z,21.10
2018-11-28T22:30:07.498Z,22.80
2018-11-28T22:32:34.667Z,23.40
2018-11-28T22:35:01.830Z,21.37
2018-11-28T22:37:29.004Z,22.57
2018-11-28T22:39:56.197Z,23.03
2018-11-28T22:42:23.334Z,23.13
2018-11-28T22:44:50.550Z,22.03
2018-11-28T22:47:17.821Z,24.73
2018-11-28T22:49:44.995Z,22.00
2018-11-28T22:52:12.153Z,26.00
2018-11-28T22:54:39.301Z,24.03
2018-11-28T22:57:06.482Z,21.43
2018-11-28T22:59:33.646Z,23.40
2018-11-28T23:04:09.303Z,23.37
2018-11-28T23:06:36.467Z,20.63
2018-11-28T23:09:04.867Z,24.47
2018-11-28T23:11:32.074Z,20.83
2018-11-28T23:13:59.196Z,20.77
2018-11-28T23:16:26.383Z,20.03
2018-11-28T23:18:53.566Z,20.47
2018-11-28T23:21:20.734Z,21.33
2018-11-28T23:23:47.879Z,21.40
2018-11-28T23:26:15.004Z,22.20
2018-11-28T23:31:16.170Z,21.67
2018-11-28T23:33:43.326Z,23.93
2018-11-28T23:36:10.536Z,22.07
2018-11-28T23:38:37.653Z,23.10
2018-11-28T23:41:05.302Z,22.00
2018-11-28T23:43:32.618Z,22.53
2018-11-28T23:45:59.826Z,21.83
2018-11-28T23:48:27.006Z,22.07
2018-11-28T23:50:54.149Z,23.20
2018-11-28T23:53:21.331Z,22.20
2018-11-28T23:55:48.451Z,23.13
2018-11-28T23:58:15.577Z,24.57
